createdAt,value
2022-08-05T00:03:54.920Z,24.40
2022-08-05T00:08:34.509Z,24.40
2022-08-05T00:12:57.740Z,24.40
2022-08-05T00:17:20.360Z,24.40
2022-08-05T00:21:42.815Z,24.40
2022-08-05T00:26:06.761Z,24.30
2022-08-05T00:30:32.166Z,24.30
2022-08-05T00:35:06.683Z,24.20
2022-08-05T00:39:37.024Z,24.20
2022-08-05T00:44:04.762Z,24.20
2022-08-05T00:48:31.451Z,24.20
2022-08-05T00:52:54.891Z,24.00
2022-08-05T00:57:21.372Z,24.00
2022-08-05T01:01:48.718Z,24.00
2022-08-05T01:06:15.486Z,24.00
2022-08-05T01:10:55.221Z,24.00
2022-08-05T01:15:35.547Z,23.90
2022-08-05T01:20:20.656Z,23.90
2022-08-05T01:24:51.120Z,23.70
2022-08-05T01:29:31.761Z,23.70
2022-08-05T01:34:49.204Z,23.50
2022-08-05T01:39:13.790Z,23.50
2022-08-05T01:43:37.733Z,23.40
2022-08-05T01:48:04.080Z,23.30
2022-08-05T01:52:37.041Z,23.20
2022-08-05T01:58:11.959Z,23.10
2022-08-05T02:01:46.110Z,23.00
2022-08-05T02:06:33.309Z,22.80
2022-08-05T02:11:04.754Z,22.50
2022-08-05T02:15:38.880Z,22.10
2022-08-05T02:20:09.361Z,21.80
2022-08-05T02:24:41.161Z,21.60
2022-08-05T02:29:04.461Z,21.50
2022-08-05T02:33:35.898Z,21.40
2022-08-05T02:38:02.611Z,21.30
2022-08-05T02:42:30.719Z,21.10
2022-08-05T02:47:00.968Z,21.00
2022-08-05T02:51:28.152Z,20.80
2022-08-05T02:56:15.984Z,20.70
2022-08-05T03:00:42.220Z,20.60
2022-08-05T03:05:11.966Z,20.50
2022-08-05T03:09:37.423Z,20.30
2022-08-05T03:14:03.302Z,20.30
2022-08-05T03:18:30.087Z,20.20
2022-08-05T03:22:57.134Z,20.20
2022-08-05T03:27:21.551Z,20.10
2022-08-05T03:31:56.548Z,20.10
2022-08-05T03:36:30.628Z,20.00
2022-08-05T03:40:53.707Z,19.90
2022-08-05T03:45:23.081Z,19.90
2022-08-05T03:49:51.627Z,19.90
2022-08-05T03:55:51.934Z,20.10
2022-08-05T04:00:02.060Z,20.20
2022-08-05T04:04:35.819Z,20.50
2022-08-05T04:09:01.419Z,21.30
2022-08-05T04:13:25.281Z,22.20
2022-08-05T04:17:57.247Z,23.10
2022-08-05T04:22:20.505Z,23.90
2022-08-05T04:26:43.900Z,24.80
2022-08-05T04:31:10.575Z,25.40
2022-08-05T04:36:11.304Z,26.20
2022-08-05T04:40:19.404Z,27.50
2022-08-05T04:44:42.342Z,29.10
2022-08-05T04:49:04.980Z,30.30
2022-08-05T04:53:35.538Z,31.60
2022-08-05T04:57:58.159Z,32.60
2022-08-05T05:02:37.020Z,32.80
2022-08-05T05:07:03.243Z,33.00
2022-08-05T05:11:41.618Z,33.60
2022-08-05T05:16:08.720Z,34.40
2022-08-05T05:20:32.043Z,36.00
2022-08-05T05:24:56.973Z,36.20
2022-08-05T05:29:21.579Z,36.10
2022-08-05T05:33:58.911Z,35.30
2022-08-05T05:38:27.420Z,32.70
2022-08-05T05:42:51.491Z,29.70
2022-08-05T05:47:22.212Z,28.10
2022-08-05T05:51:50.030Z,28.10
2022-08-05T05:56:13.100Z,28.20
2022-08-05T06:00:35.680Z,28.70
2022-08-05T06:04:58.381Z,30.60
2022-08-05T06:09:24.788Z,33.90
2022-08-05T06:13:50.448Z,33.70
2022-08-05T06:18:16.920Z,32.10
2022-08-05T06:22:40.469Z,31.10
2022-08-05T06:27:04.264Z,31.00
2022-08-05T06:31:32.018Z,31.70
2022-08-05T06:36:03.926Z,32.00
2022-08-05T06:40:32.438Z,33.70
2022-08-05T06:44:55.119Z,35.90
2022-08-05T06:49:21.474Z,39.10
2022-08-05T06:54:04.059Z,41.80
2022-08-05T06:58:36.286Z,43.20
2022-08-05T07:02:59.020Z,43.30
2022-08-05T07:07:23.872Z,42.00
2022-08-05T07:12:00.481Z,42.40
2022-08-05T07:17:59.178Z,44.00
2022-08-05T07:21:25.600Z,44.50
2022-08-05T07:25:56.042Z,43.80
2022-08-05T07:30:23.946Z,42.80
2022-08-05T07:34:51.120Z,41.50
2022-08-05T07:40:03.706Z,39.50
2022-08-05T07:44:18.350Z,38.40
2022-08-05T07:49:04.225Z,38.20
2022-08-05T07:53:26.917Z,39.70
2022-08-05T07:58:03.027Z,38.70
2022-08-05T08:02:30.967Z,37.00
2022-08-05T08:07:10.260Z,36.30
2022-08-05T08:11:47.511Z,36.10
2022-08-05T08:16:50.503Z,37.00
2022-08-05T08:21:02.143Z,39.30
2022-08-05T08:25:59.731Z,40.00
2022-08-05T08:30:29.658Z,41.10
2022-08-05T08:34:54.719Z,43.70
2022-08-05T08:39:20.240Z,44.80
2022-08-05T08:45:21.153Z,44.90
2022-08-05T08:49:02.996Z,45.20
2022-08-05T08:53:15.988Z,45.70
2022-08-05T08:57:42.273Z,46.70
2022-08-05T09:02:22.078Z,46.80
2022-08-05T09:06:49.863Z,47.20
2022-08-05T09:11:13.916Z,48.40
2022-08-05T09:15:38.221Z,48.00
2022-08-05T09:20:05.279Z,48.30
2022-08-05T09:24:28.119Z,47.40
2022-08-05T09:28:59.459Z,45.60
2022-08-05T09:33:23.299Z,45.70
2022-08-05T09:38:12.375Z,47.10
2022-08-05T09:42:43.461Z,48.00
2022-08-05T09:47:16.051Z,48.60
2022-08-05T09:51:43.137Z,48.90
2022-08-05T09:56:13.394Z,49.30
2022-08-05T10:00:36.340Z,49.30
2022-08-05T10:05:14.939Z,49.50
2022-08-05T10:09:45.067Z,49.70
2022-08-05T10:14:32.229Z,48.10
2022-08-05T10:18:55.159Z,46.20
2022-08-05T10:23:59.329Z,46.30
2022-08-05T10:28:28.945Z,44.10
2022-08-05T10:33:01.833Z,42.70
2022-08-05T10:37:26.701Z,43.80
2022-08-05T10:42:18.829Z,45.20
2022-08-05T10:46:57.160Z,45.90
2022-08-05T10:51:22.880Z,44.60
2022-08-05T10:56:21.230Z,44.90
2022-08-05T11:00:55.381Z,44.10
2022-08-05T11:05:29.145Z,44.50
2022-08-05T11:10:04.093Z,45.80
2022-08-05T11:20:11.120Z,45.80
2022-08-05T11:24:29.748Z,43.50
2022-08-05T11:28:54.919Z,40.10
2022-08-05T11:33:46.493Z,38.80
2022-08-05T11:38:28.945Z,37.40
2022-08-05T11:42:52.892Z,36.70
2022-08-05T11:47:21.549Z,36.70
2022-08-05T11:51:50.594Z,36.70
2022-08-05T11:56:13.231Z,36.30
2022-08-05T12:00:38.637Z,36.00
2022-08-05T12:05:07.471Z,35.70
2022-08-05T12:09:52.770Z,35.40
2022-08-05T12:14:16.956Z,35.40
2022-08-05T12:18:42.625Z,35.50
2022-08-05T12:23:12.433Z,34.40
2022-08-05T12:27:35.035Z,33.80
2022-08-05T12:32:16.121Z,34.20
2022-08-05T12:36:39.268Z,34.60
2022-08-05T12:41:03.060Z,35.40
2022-08-05T12:45:42.670Z,35.90
2022-08-05T12:50:19.821Z,35.90
2022-08-05T12:54:45.620Z,35.60
2022-08-05T12:59:21.139Z,35.00
2022-08-05T13:03:49.979Z,34.10
2022-08-05T13:08:18.879Z,33.80
2022-08-05T13:12:57.503Z,34.10
2022-08-05T13:17:31.917Z,34.30
2022-08-05T13:22:03.899Z,34.50
2022-08-05T13:26:30.154Z,34.60
2022-08-05T13:30:53.527Z,34.40
2022-08-05T13:35:22.146Z,34.20
2022-08-05T13:40:16.156Z,34.50
2022-08-05T13:44:34.750Z,34.80
2022-08-05T13:49:01.048Z,35.20
2022-08-05T13:53:23.539Z,35.60
2022-08-05T13:57:48.626Z,35.60
2022-08-05T14:02:19.684Z,35.20
2022-08-05T14:06:47.685Z,34.40
2022-08-05T14:11:20.843Z,33.90
2022-08-05T14:16:05.045Z,33.70
2022-08-05T14:20:27.937Z,33.30
2022-08-05T14:24:50.421Z,32.70
2022-08-05T14:29:15.946Z,32.30
2022-08-05T14:33:59.317Z,32.30
2022-08-05T14:38:32.816Z,32.60
2022-08-05T14:42:58.629Z,32.70
2022-08-05T14:48:03.210Z,32.50
2022-08-05T14:52:04.241Z,32.40
2022-08-05T14:56:31.041Z,32.50
2022-08-05T15:00:59.093Z,32.60
2022-08-05T15:05:22.261Z,32.70
2022-08-05T15:09:54.362Z,32.60
2022-08-05T15:14:33.256Z,32.50
2022-08-05T15:18:58.603Z,32.30
2022-08-05T15:23:23.062Z,32.10
2022-08-05T15:27:51.884Z,31.90
2022-08-05T15:32:14.821Z,31.70
2022-08-05T15:36:39.121Z,31.40
2022-08-05T15:41:23.723Z,31.20
2022-08-05T15:45:46.147Z,30.90
2022-08-05T15:50:15.164Z,30.70
2022-08-05T15:54:38.562Z,30.60
2022-08-05T15:59:01.081Z,30.40
2022-08-05T16:03:23.674Z,30.50
2022-08-05T16:07:46.493Z,30.50
2022-08-05T16:12:11.754Z,30.50
2022-08-05T16:16:36.044Z,30.30
2022-08-05T16:21:01.216Z,30.10
2022-08-05T16:25:33.788Z,29.90
2022-08-05T16:29:57.089Z,29.70
2022-08-05T16:34:22.062Z,29.60
2022-08-05T16:38:44.539Z,29.60
2022-08-05T16:43:17.723Z,29.80
2022-08-05T16:47:48.453Z,30.00
2022-08-05T16:52:16.454Z,29.80
2022-08-05T16:56:41.522Z,29.80
2022-08-05T17:01:04.510Z,29.90
2022-08-05T17:05:33.017Z,29.70
2022-08-05T17:09:59.463Z,28.80
2022-08-05T17:14:37.101Z,27.90
2022-08-05T17:19:00.728Z,27.00
2022-08-05T17:24:03.251Z,26.20
2022-08-05T17:28:05.783Z,25.60
2022-08-05T17:32:30.563Z,25.00
2022-08-05T17:36:56.942Z,24.50
2022-08-05T17:42:16.942Z,24.00
2022-08-05T17:46:02.342Z,23.50
2022-08-05T17:50:30.470Z,23.20
2022-08-05T17:54:53.523Z,22.90
2022-08-05T17:59:15.763Z,22.70
2022-08-05T18:04:04.083Z,22.50
2022-08-05T18:08:25.455Z,22.40
2022-08-05T18:12:48.682Z,22.30
2022-08-05T18:17:58.614Z,22.10
2022-08-05T18:22:09.645Z,21.90
2022-08-05T18:26:34.088Z,21.60
2022-08-05T18:30:57.423Z,21.30
2022-08-05T18:35:20.162Z,21.20
2022-08-05T18:40:34.316Z,20.90
2022-08-05T18:44:49.166Z,20.70
2022-08-05T18:49:56.821Z,20.60
2022-08-05T18:54:19.313Z,20.60
2022-08-05T18:58:42.981Z,20.50
2022-08-05T19:03:55.768Z,20.40
2022-08-05T19:14:15.272Z,20.30
2022-08-05T19:19:54.805Z,20.20
2022-08-05T19:36:12.464Z,20.00
2022-08-05T20:21:23.467Z,19.70
2022-08-05T20:25:46.427Z,19.50
2022-08-05T20:30:12.562Z,19.40
2022-08-05T20:34:35.163Z,19.30
2022-08-05T20:38:58.964Z,19.20
2022-08-05T20:43:33.265Z,19.20
2022-08-05T20:48:04.102Z,19.20
2022-08-05T20:52:27.058Z,19.20
2022-08-05T20:56:50.400Z,19.10
2022-08-05T21:01:13.703Z,19.00
2022-08-05T21:05:53.941Z,18.90
2022-08-05T21:10:18.142Z,18.80
2022-08-05T21:14:40.404Z,18.80
2022-08-05T21:19:03.623Z,18.70
2022-08-05T21:23:26.022Z,18.70
2022-08-05T21:27:52.776Z,18.70
2022-08-05T21:32:17.142Z,18.60
2022-08-05T21:36:42.763Z,18.50
2022-08-05T21:41:09.631Z,18.50
2022-08-05T21:45:56.533Z,18.30
2022-08-05T21:50:15.531Z,18.30
2022-08-05T21:54:40.802Z,18.30
2022-08-05T21:59:07.729Z,18.30
2022-08-05T22:03:51.941Z,18.20
2022-08-05T22:08:22.367Z,18.20
2022-08-05T22:12:50.595Z,18.20
2022-08-05T22:17:13.484Z,18.10
2022-08-05T22:21:36.063Z,17.90
2022-08-05T22:26:19.675Z,17.80
2022-08-05T22:30:56.105Z,17.70
2022-08-05T22:35:20.503Z,17.40
2022-08-05T22:39:45.592Z,17.10
2022-08-05T22:44:13.662Z,16.70
2022-08-05T22:48:36.284Z,15.90
2022-08-05T22:52:59.045Z,15.50
2022-08-05T22:57:21.502Z,15.30
2022-08-05T23:02:04.269Z,15.30
2022-08-05T23:06:26.568Z,15.30
2022-08-05T23:10:53.230Z,15.30
2022-08-05T23:15:18.869Z,15.30
2022-08-05T23:19:46.694Z,15.30
2022-08-05T23:24:18.142Z,15.30
2022-08-05T23:28:43.063Z,15.40
2022-08-05T23:33:05.802Z,15.50
2022-08-05T23:37:39.263Z,15.50
2022-08-05T23:42:02.282Z,15.60
2022-08-05T23:46:25.221Z,15.60
2022-08-05T23:50:48.583Z,15.70
2022-08-05T23:55:11.495Z,15.70
